CA-0257 weather

CLOSED Nanton (Green Farms) Airport
Alberta, Canada

Public forecast

Using degrees Celsius for public forecast. Weather courtesy of forecast.io.

METAR (pilot weather report)

Closest report is Calgary International Airport, 45.9 nm (85.0 km) NNW. Retrieved 2019/06/25 09:00 UTC (27 minutes ago):

CYYC 250900Z 35008KT 15SM BKN120 10/06 A2985 RMK AC5 VIRGA OVRHD SLP122 DENSITY ALT 4000FT

TAF (pilot weather forecast)

Closest forecast is Calgary International Airport, 45.9 nm (85.0 km) NNW. Retrieved 2019/06/25 09:40 UTC (0 seconds ago):

TAF CYYC 250838Z 2509/2606 35006KT P6SM SCT040 SCT100 FM251700 34008KT P6SM VCSH BKN030 FM252100 36008KT P6SM BKN050 TEMPO 2521/2603 P6SM -SHRA VCTS BKN040CB RMK NXT FCST BY 251200Z